Blovstrod, Denmark
Current Conditions -  °F | °C
As of 9:50 AM on Wednesday 26 Nov 2014 (Local Time) from EKCH Reporting Station
Broken Clouds Broken Clouds  
Wind Chill: 45°   Ceiling: 2200
Heat Index: 45°   Visibility: 6mi
Dew Point: 37°   Wind: 1mph
Humidity: 76%   Direction: 90°E
Pressure: 30.3"   Gusts: NA
Location:  55.87°N, 12.39°E
Report Text: EKCH 260850Z 09001KT 9999 BKN022 07/03 Q1026 NOSIG
Loading
Personal Weather Stations






























Interactive Weather Map New forecast layout! Learn more

10-Day Weather Forecast

Advertisements
Track Severe Weather on mobile